createdAt,value
2022-07-31T00:00:54.686Z,21.42
2022-07-31T00:01:54.684Z,21.37
2022-07-31T00:02:54.678Z,21.40
2022-07-31T00:03:54.754Z,21.43
2022-07-31T00:04:54.669Z,21.37
2022-07-31T00:05:54.664Z,21.36
2022-07-31T00:06:54.658Z,21.37
2022-07-31T00:07:54.756Z,21.38
2022-07-31T00:08:54.650Z,21.45
2022-07-31T00:09:54.807Z,21.30
2022-07-31T00:10:54.639Z,21.30
2022-07-31T00:11:54.635Z,21.24
2022-07-31T00:12:54.632Z,21.27
2022-07-31T00:13:56.500Z,21.22
2022-07-31T00:14:54.623Z,21.16
2022-07-31T00:15:54.617Z,21.21
2022-07-31T00:16:54.610Z,21.22
2022-07-31T00:17:54.606Z,21.15
2022-07-31T00:18:54.600Z,21.16
2022-07-31T00:19:54.599Z,21.03
2022-07-31T00:20:54.591Z,21.01
2022-07-31T00:21:54.589Z,21.13
2022-07-31T00:22:54.580Z,21.09
2022-07-31T00:23:54.578Z,21.01
2022-07-31T00:24:54.571Z,21.08
2022-07-31T00:25:54.568Z,21.01
2022-07-31T00:26:54.560Z,21.06
2022-07-31T00:27:54.559Z,21.00
2022-07-31T00:28:54.549Z,20.96
2022-07-31T00:29:54.550Z,20.90
2022-07-31T00:30:54.541Z,20.93
2022-07-31T00:31:54.538Z,21.01
2022-07-31T00:32:54.531Z,21.00
2022-07-31T00:33:54.529Z,20.97
2022-07-31T00:34:54.522Z,20.91
2022-07-31T00:35:54.530Z,20.88
2022-07-31T00:36:54.509Z,20.91
2022-07-31T00:38:02.136Z,20.96
2022-07-31T00:38:54.501Z,20.93
2022-07-31T00:39:54.501Z,20.93
2022-07-31T00:40:54.490Z,20.90
2022-07-31T00:41:54.488Z,20.90
2022-07-31T00:42:54.480Z,20.94
2022-07-31T00:43:54.478Z,20.87
2022-07-31T00:44:54.469Z,20.85
2022-07-31T00:45:58.927Z,20.88
2022-07-31T00:46:54.460Z,20.87
2022-07-31T00:47:55.868Z,20.82
2022-07-31T00:48:54.522Z,20.82
2022-07-31T00:49:54.465Z,20.87
2022-07-31T00:50:54.440Z,20.90
2022-07-31T00:51:54.437Z,20.78
2022-07-31T00:52:54.432Z,20.78
2022-07-31T00:53:54.427Z,20.73
2022-07-31T00:54:54.419Z,20.75
2022-07-31T00:55:54.415Z,20.76
2022-07-31T00:56:54.408Z,20.78
2022-07-31T00:57:54.406Z,20.75
2022-07-31T00:58:54.397Z,20.83
2022-07-31T00:59:54.395Z,20.78
2022-07-31T01:00:54.524Z,20.76
2022-07-31T01:01:54.402Z,20.71
2022-07-31T01:02:54.377Z,20.68
2022-07-31T01:03:54.376Z,20.66
2022-07-31T01:04:54.372Z,20.66
2022-07-31T01:05:54.383Z,20.58
2022-07-31T01:06:54.361Z,20.61
2022-07-31T01:07:54.354Z,20.61
2022-07-31T01:08:54.359Z,20.56
2022-07-31T01:09:54.343Z,20.51
2022-07-31T01:10:54.335Z,20.50
2022-07-31T01:11:54.333Z,20.42
2022-07-31T01:12:54.485Z,20.53
2022-07-31T01:13:54.320Z,20.51
2022-07-31T01:14:54.314Z,20.48
2022-07-31T01:15:54.315Z,20.48
2022-07-31T01:16:54.303Z,20.53
2022-07-31T01:17:54.500Z,20.42
2022-07-31T01:18:54.292Z,20.46
2022-07-31T01:19:54.289Z,20.53
2022-07-31T01:20:54.281Z,20.40
2022-07-31T01:21:54.277Z,20.42
2022-07-31T01:22:54.271Z,20.40
2022-07-31T01:23:55.262Z,20.38
2022-07-31T01:24:54.261Z,20.33
2022-07-31T01:25:54.258Z,20.38
2022-07-31T01:26:54.253Z,20.31
2022-07-31T01:27:54.264Z,20.37
2022-07-31T01:28:54.273Z,20.41
2022-07-31T01:29:54.248Z,20.31
2022-07-31T01:31:10.619Z,20.34
2022-07-31T01:31:54.228Z,20.44
2022-07-31T01:32:54.215Z,20.42
2022-07-31T01:33:54.212Z,20.53
2022-07-31T01:34:54.206Z,20.46
2022-07-31T01:35:54.201Z,20.40
2022-07-31T01:36:54.195Z,20.34
2022-07-31T01:37:54.190Z,20.41
2022-07-31T01:38:54.183Z,20.37
2022-07-31T01:39:54.179Z,20.40
2022-07-31T01:40:54.171Z,20.35
2022-07-31T01:41:54.168Z,20.33
2022-07-31T01:42:54.162Z,20.31
2022-07-31T01:43:54.159Z,20.34
2022-07-31T01:44:54.149Z,20.34
2022-07-31T01:45:54.147Z,20.42
2022-07-31T01:46:54.139Z,20.46
2022-07-31T01:47:54.137Z,20.40
2022-07-31T01:48:54.158Z,20.37
2022-07-31T01:49:54.128Z,20.34
2022-07-31T01:50:54.117Z,20.34
2022-07-31T01:51:54.957Z,20.37
2022-07-31T01:52:54.105Z,20.31
2022-07-31T01:53:54.101Z,20.20
2022-07-31T01:54:54.095Z,20.33
2022-07-31T01:56:01.931Z,20.25
2022-07-31T01:56:54.084Z,20.30
2022-07-31T01:57:54.080Z,20.35
2022-07-31T01:58:54.072Z,20.37
2022-07-31T01:59:54.576Z,20.33
2022-07-31T02:00:54.080Z,20.33
2022-07-31T02:01:54.067Z,20.33
2022-07-31T02:02:54.488Z,20.33
2022-07-31T02:03:56.182Z,20.37
2022-07-31T02:04:54.037Z,20.33
2022-07-31T02:05:54.035Z,20.30
2022-07-31T02:06:54.026Z,20.31
2022-07-31T02:07:54.022Z,20.31
2022-07-31T02:08:54.014Z,20.37
2022-07-31T02:09:58.919Z,20.34
2022-07-31T02:10:54.003Z,20.31
2022-07-31T02:11:54.946Z,20.35
2022-07-31T02:12:53.993Z,20.26
2022-07-31T02:13:53.987Z,20.35
2022-07-31T02:14:54.081Z,20.37
2022-07-31T02:15:53.978Z,20.34
2022-07-31T02:16:53.973Z,20.31
2022-07-31T02:17:53.965Z,20.34
2022-07-31T02:18:53.957Z,20.41
2022-07-31T02:19:57.835Z,20.37
2022-07-31T02:20:53.947Z,20.33
2022-07-31T02:21:53.942Z,20.37
2022-07-31T02:22:53.951Z,20.38
2022-07-31T02:23:53.933Z,20.41
2022-07-31T02:24:53.923Z,20.41
2022-07-31T02:25:53.919Z,20.48
2022-07-31T02:26:53.913Z,20.48
2022-07-31T02:27:58.616Z,20.48
2022-07-31T02:28:53.902Z,20.50
2022-07-31T02:29:53.901Z,20.51
2022-07-31T02:30:53.890Z,20.51
2022-07-31T02:32:02.982Z,20.50
2022-07-31T02:32:53.879Z,20.63
2022-07-31T02:33:53.875Z,20.51
2022-07-31T02:34:53.868Z,20.63
2022-07-31T02:35:53.864Z,20.58
2022-07-31T02:36:53.857Z,20.56
2022-07-31T02:37:53.854Z,20.63
2022-07-31T02:38:53.846Z,20.69
2022-07-31T02:39:53.843Z,20.60
2022-07-31T02:40:53.835Z,20.69
2022-07-31T02:41:53.833Z,20.66
2022-07-31T02:42:53.825Z,20.68
2022-07-31T02:43:53.819Z,20.61
2022-07-31T02:44:53.812Z,20.73
2022-07-31T02:45:53.809Z,20.71
2022-07-31T02:46:53.802Z,20.64
2022-07-31T02:47:53.798Z,20.60
2022-07-31T02:48:53.894Z,20.66
2022-07-31T02:49:53.803Z,20.71
2022-07-31T02:50:53.780Z,20.76
2022-07-31T02:51:53.775Z,20.60
2022-07-31T02:52:53.767Z,20.63
2022-07-31T02:53:53.767Z,20.69
2022-07-31T02:54:53.758Z,20.71
2022-07-31T02:55:53.756Z,20.68
2022-07-31T02:56:53.759Z,20.56
2022-07-31T02:57:53.743Z,20.60
2022-07-31T02:58:53.735Z,20.60
2022-07-31T02:59:53.728Z,20.60
2022-07-31T03:00:53.816Z,20.61
2022-07-31T03:01:53.717Z,20.63
2022-07-31T03:02:53.712Z,20.44
2022-07-31T03:03:53.706Z,20.60
2022-07-31T03:04:53.702Z,20.61
2022-07-31T03:05:53.694Z,20.53
2022-07-31T03:06:53.691Z,20.51
2022-07-31T03:07:53.684Z,20.64
2022-07-31T03:08:53.680Z,20.60
2022-07-31T03:09:53.672Z,20.60
2022-07-31T03:10:53.669Z,20.58
2022-07-31T03:11:53.660Z,20.51
2022-07-31T03:12:53.657Z,20.60
2022-07-31T03:13:53.649Z,20.60
2022-07-31T03:14:53.645Z,20.48
2022-07-31T03:15:53.640Z,20.50
2022-07-31T03:16:53.636Z,20.48
2022-07-31T03:17:53.630Z,20.50
2022-07-31T03:18:53.626Z,20.46
2022-07-31T03:19:53.616Z,20.42
2022-07-31T03:20:53.612Z,20.54
2022-07-31T03:21:53.605Z,20.63
2022-07-31T03:22:53.601Z,20.68
2022-07-31T03:23:53.594Z,20.68
2022-07-31T03:24:53.590Z,20.61
2022-07-31T03:25:53.582Z,20.64
2022-07-31T03:26:53.577Z,20.72
2022-07-31T03:27:56.492Z,20.75
2022-07-31T03:28:53.566Z,20.76
2022-07-31T03:29:53.559Z,20.64
2022-07-31T03:30:56.265Z,20.58
2022-07-31T03:31:53.548Z,20.61
2022-07-31T03:32:53.543Z,20.53
2022-07-31T03:33:53.539Z,20.63
2022-07-31T03:34:53.532Z,20.71
2022-07-31T03:35:53.527Z,20.79
2022-07-31T03:36:53.520Z,20.72
2022-07-31T03:37:53.512Z,20.76
2022-07-31T03:38:53.509Z,20.71
2022-07-31T03:39:53.500Z,20.63
2022-07-31T03:40:53.497Z,20.64
2022-07-31T03:41:53.488Z,20.63
2022-07-31T03:42:53.485Z,20.53
2022-07-31T03:43:53.477Z,20.46
2022-07-31T03:44:53.473Z,20.50
2022-07-31T03:45:53.465Z,20.42
2022-07-31T03:46:53.463Z,20.37
2022-07-31T03:47:53.453Z,20.38
2022-07-31T03:48:53.583Z,20.35
2022-07-31T03:49:53.444Z,20.37
2022-07-31T03:50:53.438Z,20.25
2022-07-31T03:51:53.432Z,20.26
2022-07-31T03:52:53.426Z,20.25
2022-07-31T03:53:53.419Z,20.22
2022-07-31T03:54:53.414Z,20.23
2022-07-31T03:55:53.409Z,20.25
2022-07-31T03:56:53.401Z,20.20
2022-07-31T03:57:53.394Z,20.17
2022-07-31T03:58:53.442Z,20.16
2022-07-31T03:59:53.385Z,20.12
2022-07-31T04:00:53.379Z,20.13
2022-07-31T04:01:57.273Z,20.02
2022-07-31T04:02:53.458Z,20.04
2022-07-31T04:03:53.359Z,20.04
2022-07-31T04:04:53.357Z,20.05
2022-07-31T04:05:53.349Z,20.00
2022-07-31T04:06:53.345Z,19.90
2022-07-31T04:07:53.336Z,19.94
2022-07-31T04:08:53.331Z,19.89
2022-07-31T04:09:53.323Z,19.90
2022-07-31T04:10:53.319Z,20.00
2022-07-31T04:11:53.312Z,19.89
2022-07-31T04:12:53.307Z,20.01
2022-07-31T04:13:53.299Z,20.02
2022-07-31T04:14:53.365Z,20.02
2022-07-31T04:15:53.289Z,20.04
2022-07-31T04:16:53.281Z,20.10
2022-07-31T04:17:53.476Z,20.08
2022-07-31T04:18:53.270Z,20.07
2022-07-31T04:19:53.377Z,19.95
2022-07-31T04:20:53.257Z,19.92
2022-07-31T04:21:53.251Z,19.97
2022-07-31T04:22:53.246Z,19.87
2022-07-31T04:23:53.240Z,19.94
2022-07-31T04:24:53.271Z,19.90
2022-07-31T04:25:53.226Z,19.92
2022-07-31T04:26:53.223Z,19.94
2022-07-31T04:27:53.215Z,19.94
2022-07-31T04:28:53.210Z,19.94
2022-07-31T04:29:53.661Z,20.04
2022-07-31T04:30:53.199Z,20.04
2022-07-31T04:31:53.190Z,20.08
2022-07-31T04:32:53.187Z,20.20
2022-07-31T04:33:56.504Z,20.34
2022-07-31T04:34:53.175Z,20.30
2022-07-31T04:35:53.167Z,20.26
2022-07-31T04:36:53.171Z,20.27
2022-07-31T04:37:53.159Z,20.34
2022-07-31T04:38:53.156Z,20.38
2022-07-31T04:39:53.347Z,20.46
2022-07-31T04:40:53.141Z,20.66
2022-07-31T04:41:53.130Z,20.78
2022-07-31T04:42:53.127Z,20.71
2022-07-31T04:43:53.122Z,20.72
2022-07-31T04:44:53.117Z,20.87
2022-07-31T04:45:53.108Z,21.03
2022-07-31T04:46:53.105Z,21.13
2022-07-31T04:47:53.096Z,21.45
2022-07-31T04:48:53.357Z,21.82
2022-07-31T04:49:53.086Z,22.01
2022-07-31T04:50:53.084Z,22.45
2022-07-31T04:51:53.076Z,22.96
2022-07-31T04:52:53.073Z,23.41
2022-07-31T04:53:53.068Z,23.94
2022-07-31T04:54:53.079Z,24.27
2022-07-31T04:55:53.058Z,24.70
2022-07-31T04:56:53.055Z,25.08
2022-07-31T04:57:53.051Z,25.57
2022-07-31T04:58:53.049Z,25.72
2022-07-31T05:00:00.118Z,25.97
2022-07-31T05:00:53.044Z,26.29
2022-07-31T05:01:53.153Z,26.54
2022-07-31T05:02:53.039Z,26.54
2022-07-31T05:03:53.036Z,26.93
2022-07-31T05:04:56.609Z,27.02
2022-07-31T05:05:53.032Z,27.09
2022-07-31T05:06:53.034Z,27.01
2022-07-31T05:07:53.032Z,26.86
2022-07-31T05:08:53.030Z,26.21
2022-07-31T05:09:53.039Z,25.72
2022-07-31T05:10:53.029Z,25.05
2022-07-31T05:11:53.040Z,24.60
2022-07-31T05:12:53.027Z,24.33
2022-07-31T05:13:53.023Z,24.12
2022-07-31T05:14:53.023Z,23.78
2022-07-31T05:15:53.021Z,23.64
2022-07-31T05:16:53.023Z,23.49
2022-07-31T05:17:53.018Z,23.97
2022-07-31T05:18:53.019Z,24.31
2022-07-31T05:19:53.014Z,24.49
2022-07-31T05:20:53.013Z,24.33
2022-07-31T05:21:55.055Z,24.15
2022-07-31T05:22:53.009Z,24.12
2022-07-31T05:23:53.006Z,24.19
2022-07-31T05:24:53.005Z,24.27
2022-07-31T05:25:53.000Z,24.56
2022-07-31T05:26:52.999Z,24.53
2022-07-31T05:27:52.998Z,24.55
2022-07-31T05:28:57.863Z,24.46
2022-07-31T05:29:52.990Z,24.24
2022-07-31T05:30:52.990Z,24.23
2022-07-31T05:32:00.437Z,24.11
2022-07-31T05:32:52.984Z,23.94
2022-07-31T05:33:52.982Z,23.84
2022-07-31T05:34:52.978Z,23.78
2022-07-31T05:35:52.987Z,23.87
2022-07-31T05:36:52.972Z,24.00
2022-07-31T05:37:53.066Z,24.05
2022-07-31T05:38:52.966Z,24.16
2022-07-31T05:39:52.962Z,24.18
2022-07-31T05:40:52.960Z,24.26
2022-07-31T05:41:53.015Z,24.37
2022-07-31T05:42:53.006Z,24.39
2022-07-31T05:43:52.950Z,24.45
2022-07-31T05:44:52.946Z,24.41
2022-07-31T05:45:52.942Z,24.51
2022-07-31T05:47:40.269Z,24.60
2022-07-31T05:48:32.283Z,24.52
2022-07-31T05:49:32.335Z,24.68
2022-07-31T05:50:32.277Z,24.75
2022-07-31T05:51:32.275Z,24.71
2022-07-31T05:52:32.274Z,24.75
2022-07-31T05:53:32.274Z,24.80
2022-07-31T05:54:32.265Z,24.80
2022-07-31T05:55:32.264Z,24.84
2022-07-31T05:56:32.259Z,24.89
2022-07-31T05:57:33.527Z,24.87
2022-07-31T05:58:32.255Z,24.87
2022-07-31T05:59:32.253Z,24.84
2022-07-31T06:00:32.396Z,24.84
2022-07-31T06:01:32.350Z,24.82
2022-07-31T06:02:32.243Z,24.90
2022-07-31T06:03:34.742Z,24.87
2022-07-31T06:04:32.238Z,24.89
2022-07-31T06:05:32.237Z,24.89
2022-07-31T06:06:32.231Z,24.99
2022-07-31T06:07:32.232Z,25.01
2022-07-31T06:08:32.228Z,25.05
2022-07-31T06:09:32.224Z,25.07
2022-07-31T06:10:32.221Z,25.31
2022-07-31T06:11:32.221Z,25.29
2022-07-31T06:12:32.218Z,25.38
2022-07-31T06:13:32.214Z,25.48
2022-07-31T06:14:32.209Z,25.53
2022-07-31T06:15:36.362Z,25.54
2022-07-31T06:17:43.646Z,25.63
2022-07-31T06:18:32.203Z,25.71
2022-07-31T06:19:32.198Z,25.71
2022-07-31T06:20:32.202Z,25.69
2022-07-31T06:21:32.191Z,25.66
2022-07-31T06:22:32.193Z,25.72
2022-07-31T06:23:32.514Z,25.72
2022-07-31T06:24:32.190Z,25.75
2022-07-31T06:25:38.791Z,25.75
2022-07-31T06:26:32.182Z,25.71
2022-07-31T06:27:34.081Z,25.69
2022-07-31T06:28:47.461Z,25.83
2022-07-31T06:29:41.935Z,25.96
2022-07-31T06:30:32.175Z,25.89
2022-07-31T06:31:32.176Z,25.78
2022-07-31T06:32:32.171Z,25.74
2022-07-31T06:33:36.998Z,25.76
2022-07-31T06:34:32.168Z,25.72
2022-07-31T06:35:32.162Z,25.74
2022-07-31T06:36:32.162Z,25.67
2022-07-31T06:37:32.158Z,25.79
2022-07-31T06:38:32.158Z,25.69
2022-07-31T06:39:55.481Z,25.71
2022-07-31T06:40:32.156Z,25.83
2022-07-31T06:41:32.150Z,25.86
2022-07-31T06:42:32.150Z,25.93
2022-07-31T06:43:32.147Z,25.97
2022-07-31T06:44:32.150Z,25.98
2022-07-31T06:45:52.093Z,25.94
2022-07-31T06:46:32.143Z,26.01
2022-07-31T06:47:32.139Z,26.03
2022-07-31T06:48:32.137Z,26.08
2022-07-31T06:49:32.152Z,26.08
2022-07-31T06:50:32.134Z,26.19
2022-07-31T06:51:32.513Z,26.20
2022-07-31T06:52:32.130Z,26.24
2022-07-31T06:53:32.127Z,26.24
2022-07-31T06:54:32.129Z,26.34
2022-07-31T06:55:32.124Z,26.35
2022-07-31T06:56:32.123Z,26.39
2022-07-31T06:57:32.119Z,26.38
2022-07-31T06:58:32.120Z,26.38
2022-07-31T06:59:39.811Z,26.34
2022-07-31T07:00:32.118Z,26.49
2022-07-31T07:01:32.224Z,26.56
2022-07-31T07:02:32.112Z,26.50
2022-07-31T07:03:32.110Z,26.50
2022-07-31T07:05:06.235Z,26.50
2022-07-31T07:05:32.105Z,26.57
2022-07-31T07:06:32.106Z,26.61
2022-07-31T07:07:32.312Z,26.64
2022-07-31T07:08:32.104Z,26.83
2022-07-31T07:09:32.101Z,27.01
2022-07-31T07:10:32.100Z,27.08
2022-07-31T07:11:32.097Z,27.05
2022-07-31T07:12:32.098Z,27.24
2022-07-31T07:13:45.018Z,27.28
2022-07-31T07:14:32.094Z,27.39
2022-07-31T07:15:32.092Z,27.52
2022-07-31T07:16:32.094Z,27.53
2022-07-31T07:17:32.089Z,27.66
2022-07-31T07:18:32.090Z,27.65
2022-07-31T07:19:32.088Z,27.80
2022-07-31T07:20:32.088Z,27.80
2022-07-31T07:21:32.091Z,27.65
2022-07-31T07:22:32.496Z,27.72
2022-07-31T07:23:32.083Z,27.74
2022-07-31T07:24:32.090Z,27.74
2022-07-31T07:25:32.086Z,27.78
2022-07-31T07:26:32.082Z,27.74
2022-07-31T07:27:32.080Z,27.77
2022-07-31T07:28:32.080Z,27.72
2022-07-31T07:29:32.079Z,27.81
2022-07-31T07:30:32.079Z,27.84
2022-07-31T07:31:32.078Z,27.83
2022-07-31T07:32:32.084Z,27.74
2022-07-31T07:33:40.999Z,27.72
2022-07-31T07:34:32.076Z,27.68
2022-07-31T07:35:34.087Z,27.74
2022-07-31T07:36:32.175Z,27.80
2022-07-31T07:37:32.071Z,27.86
2022-07-31T07:38:32.073Z,27.87
2022-07-31T07:39:32.072Z,27.98
2022-07-31T07:40:32.074Z,28.01
2022-07-31T07:41:32.071Z,27.99
2022-07-31T07:42:32.073Z,28.14
2022-07-31T07:43:32.070Z,28.09
2022-07-31T07:44:32.073Z,28.21
2022-07-31T07:45:32.067Z,28.25
2022-07-31T07:46:32.068Z,28.28
2022-07-31T07:47:53.903Z,28.36
2022-07-31T07:48:32.069Z,28.21
2022-07-31T07:49:32.119Z,28.30
2022-07-31T07:50:32.067Z,28.33
2022-07-31T07:51:32.067Z,28.39
2022-07-31T07:52:32.066Z,28.39
2022-07-31T07:53:32.063Z,28.35
2022-07-31T07:54:32.066Z,28.50
2022-07-31T07:55:37.364Z,28.46
2022-07-31T07:56:32.066Z,28.54
2022-07-31T07:57:32.062Z,28.39
2022-07-31T07:58:32.066Z,28.52
2022-07-31T07:59:32.065Z,28.55
2022-07-31T08:00:32.066Z,28.51
2022-07-31T08:01:32.122Z,28.52
2022-07-31T08:02:32.064Z,28.57
2022-07-31T08:03:51.471Z,28.55
2022-07-31T08:04:32.079Z,28.65
2022-07-31T08:05:32.061Z,28.60
2022-07-31T08:06:32.077Z,28.69
2022-07-31T08:07:42.176Z,28.74
2022-07-31T08:08:32.064Z,28.67
2022-07-31T08:09:32.062Z,28.76
2022-07-31T08:10:32.063Z,28.74
2022-07-31T08:11:32.061Z,28.74
2022-07-31T08:12:32.064Z,28.85
2022-07-31T08:13:32.061Z,28.89
2022-07-31T08:14:32.063Z,28.91
2022-07-31T08:15:32.062Z,28.97
2022-07-31T08:16:32.063Z,29.07
2022-07-31T08:17:32.062Z,29.02
2022-07-31T08:18:32.063Z,29.11
2022-07-31T08:19:32.061Z,29.08
2022-07-31T08:20:32.064Z,29.10
2022-07-31T08:21:32.063Z,29.14
2022-07-31T08:22:32.066Z,29.23
2022-07-31T08:23:32.062Z,29.27
2022-07-31T08:24:32.065Z,29.26
2022-07-31T08:25:32.309Z,29.26
2022-07-31T08:26:32.066Z,29.35
2022-07-31T08:27:39.964Z,29.35
2022-07-31T08:28:32.065Z,29.36
2022-07-31T08:29:32.064Z,29.36
2022-07-31T08:30:32.066Z,29.42
2022-07-31T08:31:32.082Z,29.44
2022-07-31T08:32:32.067Z,29.39
2022-07-31T08:33:32.064Z,29.45
2022-07-31T08:34:32.268Z,29.52
2022-07-31T08:35:32.068Z,29.48
2022-07-31T08:36:32.070Z,29.49
2022-07-31T08:37:51.032Z,29.51
2022-07-31T08:38:32.072Z,29.52
2022-07-31T08:39:32.168Z,29.55
2022-07-31T08:40:34.965Z,29.66
2022-07-31T08:41:32.069Z,29.60
2022-07-31T08:42:32.071Z,29.70
2022-07-31T08:44:01.334Z,29.70
2022-07-31T08:44:32.073Z,29.74
2022-07-31T08:45:32.072Z,29.81
2022-07-31T08:46:32.090Z,29.85
2022-07-31T08:47:32.073Z,29.86
2022-07-31T08:48:32.076Z,29.91
2022-07-31T08:49:32.091Z,29.92
2022-07-31T08:50:32.075Z,30.03
2022-07-31T08:51:32.075Z,30.11
2022-07-31T08:52:32.079Z,30.04
2022-07-31T08:53:32.076Z,30.06
2022-07-31T08:54:32.078Z,30.04
2022-07-31T08:55:56.354Z,30.10
2022-07-31T08:56:32.082Z,30.08
2022-07-31T08:57:32.079Z,30.10
2022-07-31T08:58:34.988Z,30.10
2022-07-31T08:59:32.082Z,30.10
2022-07-31T09:00:32.085Z,30.03
2022-07-31T09:01:32.150Z,30.10
2022-07-31T09:02:32.086Z,30.16
2022-07-31T09:03:32.085Z,30.10
2022-07-31T09:04:32.087Z,30.11
2022-07-31T09:05:42.040Z,30.13
2022-07-31T09:06:32.093Z,30.18
2022-07-31T09:07:32.088Z,30.28
2022-07-31T09:08:32.092Z,30.40
2022-07-31T09:09:50.859Z,30.26
2022-07-31T09:10:32.094Z,30.34
2022-07-31T09:11:32.092Z,30.45
2022-07-31T09:12:34.028Z,30.51
2022-07-31T09:13:32.094Z,30.56
2022-07-31T09:14:32.097Z,30.54
2022-07-31T09:15:32.097Z,30.64
2022-07-31T09:16:32.101Z,30.57
2022-07-31T09:17:32.098Z,30.57
2022-07-31T09:18:32.101Z,30.72
2022-07-31T09:19:51.785Z,30.72
2022-07-31T09:20:32.103Z,30.64
2022-07-31T09:21:32.103Z,30.60
2022-07-31T09:22:32.107Z,30.73
2022-07-31T09:23:32.109Z,30.75
2022-07-31T09:24:32.110Z,30.73
2022-07-31T09:25:32.107Z,30.73
2022-07-31T09:26:32.110Z,30.81
2022-07-31T09:27:32.112Z,30.79
2022-07-31T09:28:32.114Z,30.82
2022-07-31T09:29:32.112Z,30.88
2022-07-31T09:30:32.117Z,30.90
2022-07-31T09:31:32.116Z,30.96
2022-07-31T09:32:32.119Z,31.00
2022-07-31T09:33:32.120Z,30.94
2022-07-31T09:34:32.126Z,30.98
2022-07-31T09:35:32.123Z,30.97
2022-07-31T09:36:32.127Z,31.10
2022-07-31T09:37:32.124Z,31.05
2022-07-31T09:38:32.131Z,31.10
2022-07-31T09:39:32.133Z,31.13
2022-07-31T09:40:32.131Z,31.16
2022-07-31T09:42:01.226Z,31.19
2022-07-31T09:42:32.132Z,31.15
2022-07-31T09:43:32.133Z,31.23
2022-07-31T09:44:32.137Z,31.37
2022-07-31T09:45:32.137Z,31.42
2022-07-31T09:46:32.140Z,31.49
2022-07-31T09:47:32.139Z,31.47
2022-07-31T09:48:32.144Z,31.45
2022-07-31T09:49:32.274Z,31.60
2022-07-31T09:50:32.146Z,31.60
2022-07-31T09:51:32.145Z,31.71
2022-07-31T09:52:32.165Z,31.72
2022-07-31T09:53:32.151Z,31.54
2022-07-31T09:54:32.152Z,31.54
2022-07-31T09:55:32.153Z,31.46
2022-07-31T09:56:32.157Z,31.45
2022-07-31T09:57:32.156Z,31.37
2022-07-31T09:58:32.160Z,31.37
2022-07-31T09:59:32.160Z,31.34
2022-07-31T10:00:32.283Z,31.45
2022-07-31T10:01:32.273Z,31.52
2022-07-31T10:02:32.166Z,31.59
2022-07-31T10:03:32.169Z,31.50
2022-07-31T10:04:32.168Z,31.52
2022-07-31T10:05:32.172Z,31.49
2022-07-31T10:06:32.173Z,31.60
2022-07-31T10:07:33.009Z,31.71
2022-07-31T10:08:32.176Z,31.75
2022-07-31T10:09:32.180Z,31.62
2022-07-31T10:10:32.178Z,31.71
2022-07-31T10:11:32.183Z,31.74
2022-07-31T10:12:32.184Z,31.88
2022-07-31T10:13:32.187Z,31.92
2022-07-31T10:14:32.187Z,31.91
2022-07-31T10:15:32.192Z,31.71
2022-07-31T10:16:32.192Z,31.46
2022-07-31T10:17:36.000Z,31.57
2022-07-31T10:18:35.774Z,31.68
2022-07-31T10:19:32.199Z,31.72
2022-07-31T10:20:32.201Z,31.53
2022-07-31T10:21:32.203Z,31.37
2022-07-31T10:22:32.204Z,31.03
2022-07-31T10:23:32.208Z,31.03
2022-07-31T10:24:32.256Z,30.93
2022-07-31T10:25:32.209Z,30.85
2022-07-31T10:26:58.637Z,30.83
2022-07-31T10:27:32.216Z,30.98
2022-07-31T10:28:32.213Z,31.13
2022-07-31T10:29:33.180Z,30.97
2022-07-31T10:30:32.216Z,30.72
2022-07-31T10:31:32.220Z,30.36
2022-07-31T10:32:32.220Z,30.34
2022-07-31T10:33:46.965Z,30.34
2022-07-31T10:34:32.223Z,30.57
2022-07-31T10:35:32.227Z,30.73
2022-07-31T10:36:32.226Z,30.79
2022-07-31T10:37:32.230Z,30.73
2022-07-31T10:38:35.448Z,30.60
2022-07-31T10:39:32.233Z,30.70
2022-07-31T10:40:32.233Z,30.86
2022-07-31T10:41:32.235Z,30.75
2022-07-31T10:42:32.235Z,30.15
2022-07-31T10:43:32.239Z,30.06
2022-07-31T10:44:35.493Z,29.99
2022-07-31T10:45:32.240Z,29.82
2022-07-31T10:46:32.241Z,29.88
2022-07-31T10:47:32.243Z,29.94
2022-07-31T10:48:32.243Z,30.15
2022-07-31T10:49:32.331Z,30.38
2022-07-31T10:50:32.244Z,30.61
2022-07-31T10:51:32.248Z,30.70
2022-07-31T10:52:32.247Z,30.94
2022-07-31T10:53:50.443Z,30.73
2022-07-31T10:54:32.248Z,30.61
2022-07-31T10:55:32.252Z,30.45
2022-07-31T10:56:32.255Z,30.64
2022-07-31T10:57:32.257Z,30.93
2022-07-31T10:58:32.254Z,31.15
2022-07-31T10:59:32.257Z,31.22
2022-07-31T11:00:32.268Z,31.16
2022-07-31T11:01:32.388Z,31.47
2022-07-31T11:02:32.262Z,31.69
2022-07-31T11:03:32.262Z,31.91
2022-07-31T11:04:32.271Z,31.91
2022-07-31T11:05:32.265Z,32.05
2022-07-31T11:06:32.264Z,32.27
2022-07-31T11:07:32.269Z,32.43
2022-07-31T11:08:32.269Z,32.58
2022-07-31T11:09:32.274Z,32.61
2022-07-31T11:10:32.271Z,32.49
2022-07-31T11:11:32.276Z,32.44
2022-07-31T11:12:32.276Z,32.32
2022-07-31T11:13:33.665Z,32.49
2022-07-31T11:14:32.280Z,32.54
2022-07-31T11:15:32.285Z,32.80
2022-07-31T11:16:32.287Z,32.93
2022-07-31T11:18:17.374Z,33.11
2022-07-31T11:18:34.349Z,33.12
2022-07-31T11:19:32.293Z,33.18
2022-07-31T11:20:32.295Z,33.09
2022-07-31T11:21:39.576Z,33.00
2022-07-31T11:22:33.128Z,32.91
2022-07-31T11:23:32.304Z,32.85
2022-07-31T11:24:32.305Z,32.53
2022-07-31T11:25:32.307Z,32.25
2022-07-31T11:26:40.887Z,31.91
2022-07-31T11:27:32.456Z,31.60
2022-07-31T11:28:32.315Z,31.13
2022-07-31T11:29:58.991Z,31.15
2022-07-31T11:30:32.318Z,31.16
2022-07-31T11:31:32.322Z,31.27
2022-07-31T11:32:32.324Z,31.23
2022-07-31T11:33:38.925Z,31.04
2022-07-31T11:34:32.326Z,30.97
2022-07-31T11:35:32.331Z,31.16
2022-07-31T11:36:32.332Z,31.30
2022-07-31T11:37:46.032Z,31.45
2022-07-31T11:38:32.335Z,31.84
2022-07-31T11:39:37.235Z,32.12
2022-07-31T11:40:32.461Z,32.12
2022-07-31T11:41:44.109Z,32.24
2022-07-31T11:42:36.126Z,32.24
2022-07-31T11:43:32.347Z,32.25
2022-07-31T11:44:32.349Z,32.22
2022-07-31T11:45:33.573Z,32.28
2022-07-31T11:46:32.355Z,32.31
2022-07-31T11:48:11.464Z,32.32
2022-07-31T11:48:38.140Z,32.27
2022-07-31T11:49:39.159Z,32.29
2022-07-31T11:50:32.362Z,32.25
2022-07-31T11:51:32.367Z,32.25
2022-07-31T11:52:37.072Z,32.35
2022-07-31T11:53:32.371Z,32.47
2022-07-31T11:54:32.372Z,32.65
2022-07-31T11:55:32.376Z,32.90
2022-07-31T11:56:32.377Z,33.11
2022-07-31T11:57:51.662Z,33.07
2022-07-31T11:58:32.400Z,32.98
2022-07-31T11:59:44.854Z,32.95
2022-07-31T12:00:32.386Z,32.90
2022-07-31T12:01:32.389Z,32.88
2022-07-31T12:02:32.454Z,32.81
2022-07-31T12:03:32.396Z,32.68
2022-07-31T12:04:32.398Z,32.68
2022-07-31T12:05:38.599Z,32.76
2022-07-31T12:06:36.374Z,32.83
2022-07-31T12:07:32.408Z,33.06
2022-07-31T12:08:32.417Z,33.20
2022-07-31T12:10:00.738Z,33.35
2022-07-31T12:10:32.411Z,33.63
2022-07-31T12:11:32.418Z,33.63
2022-07-31T12:12:32.420Z,33.92
2022-07-31T12:13:32.425Z,33.82
2022-07-31T12:14:32.430Z,33.78
2022-07-31T12:15:32.429Z,34.03
2022-07-31T12:16:32.430Z,34.27
2022-07-31T12:17:32.435Z,34.55
2022-07-31T12:18:32.437Z,34.65
2022-07-31T12:19:37.303Z,34.65
2022-07-31T12:20:36.769Z,34.49
2022-07-31T12:21:32.450Z,34.36
2022-07-31T12:22:32.457Z,34.21
2022-07-31T12:23:38.593Z,34.21
2022-07-31T12:24:32.459Z,34.00
2022-07-31T12:25:32.468Z,33.81
2022-07-31T12:26:32.467Z,33.82
2022-07-31T12:27:32.472Z,33.74
2022-07-31T12:28:32.523Z,33.59
2022-07-31T12:29:32.478Z,33.47
2022-07-31T12:30:32.481Z,33.43
2022-07-31T12:31:32.497Z,33.65
2022-07-31T12:32:32.489Z,33.82
2022-07-31T12:33:32.492Z,34.05
2022-07-31T12:34:32.493Z,34.08
2022-07-31T12:35:54.508Z,34.05
2022-07-31T12:36:32.502Z,34.00
2022-07-31T12:37:32.509Z,33.92
2022-07-31T12:38:44.791Z,34.00
2022-07-31T12:39:54.319Z,34.01
2022-07-31T12:40:32.731Z,33.94
2022-07-31T12:41:32.521Z,33.81
2022-07-31T12:42:36.484Z,33.63
2022-07-31T12:43:32.527Z,33.60
2022-07-31T12:44:32.529Z,33.44
2022-07-31T12:45:32.534Z,33.37
2022-07-31T12:46:32.538Z,33.40
2022-07-31T12:47:32.541Z,33.28
2022-07-31T12:48:37.968Z,33.21
2022-07-31T12:49:32.602Z,33.20
2022-07-31T12:50:32.555Z,33.03
2022-07-31T12:51:44.666Z,32.93
2022-07-31T12:52:32.558Z,32.96
2022-07-31T12:53:32.562Z,32.99
2022-07-31T12:54:35.452Z,33.05